createdAt,value
2018-08-23T00:00:16.901Z,22.77
2018-08-23T00:01:16.894Z,22.76
2018-08-23T00:02:16.880Z,22.68
2018-08-23T00:03:16.872Z,22.68
2018-08-23T00:04:16.874Z,22.68
2018-08-23T00:05:16.847Z,22.68
2018-08-23T00:06:16.835Z,22.70
2018-08-23T00:07:16.827Z,22.70
2018-08-23T00:08:16.838Z,22.70
2018-08-23T00:09:16.841Z,22.70
2018-08-23T00:10:16.796Z,22.65
2018-08-23T00:11:16.783Z,22.62
2018-08-23T00:12:16.777Z,22.65
2018-08-23T00:13:16.761Z,22.60
2018-08-23T00:14:16.747Z,22.72
2018-08-23T00:15:16.764Z,22.61
2018-08-23T00:16:16.766Z,22.62
2018-08-23T00:17:16.721Z,22.61
2018-08-23T00:18:16.704Z,22.62
2018-08-23T00:19:16.694Z,22.68
2018-08-23T00:20:16.698Z,22.64
2018-08-23T00:21:16.671Z,22.58
2018-08-23T00:22:16.667Z,22.60
2018-08-23T00:23:16.653Z,22.58
2018-08-23T00:24:16.641Z,22.52
2018-08-23T00:25:16.643Z,22.60
2018-08-23T00:26:16.618Z,22.51
2018-08-23T00:27:16.691Z,22.43
2018-08-23T00:28:16.596Z,22.49
2018-08-23T00:29:16.583Z,22.47
2018-08-23T00:30:16.592Z,22.40
2018-08-23T00:31:16.564Z,22.33
2018-08-23T00:32:16.551Z,22.28
2018-08-23T00:33:16.539Z,22.24
2018-08-23T00:34:16.531Z,22.30
2018-08-23T00:35:16.519Z,22.21
2018-08-23T00:36:16.523Z,22.21
2018-08-23T00:37:16.508Z,22.14
2018-08-23T00:38:16.489Z,22.10
2018-08-23T00:39:16.476Z,22.12
2018-08-23T00:40:16.465Z,22.18
2018-08-23T00:41:16.472Z,22.20
2018-08-23T00:42:16.440Z,22.15
2018-08-23T00:43:16.448Z,22.15
2018-08-23T00:44:16.424Z,22.12
2018-08-23T00:45:16.411Z,22.14
2018-08-23T00:46:16.418Z,22.09
2018-08-23T00:47:16.386Z,22.10
2018-08-23T00:48:16.394Z,22.14
2018-08-23T00:49:16.368Z,22.14
2018-08-23T00:50:16.356Z,22.14
2018-08-23T00:51:16.362Z,22.20
2018-08-23T00:52:16.339Z,22.15
2018-08-23T00:53:16.323Z,22.17
2018-08-23T00:54:16.376Z,22.14
2018-08-23T00:55:16.299Z,22.09
2018-08-23T00:56:16.291Z,22.02
2018-08-23T00:57:16.319Z,21.98
2018-08-23T00:58:16.268Z,21.92
2018-08-23T00:59:16.258Z,21.96
2018-08-23T01:00:16.248Z,21.99
2018-08-23T01:01:16.233Z,21.96
2018-08-23T01:02:16.226Z,21.98
2018-08-23T01:03:16.280Z,22.05
2018-08-23T01:04:16.203Z,22.05
2018-08-23T01:05:16.192Z,22.06
2018-08-23T01:06:16.183Z,22.06
2018-08-23T01:07:16.171Z,22.09
2018-08-23T01:08:16.159Z,22.09
2018-08-23T01:09:16.165Z,22.07
2018-08-23T01:10:16.135Z,22.00
2018-08-23T01:11:16.124Z,22.02
2018-08-23T01:12:16.115Z,22.00
2018-08-23T01:13:16.107Z,21.92
2018-08-23T01:14:16.127Z,22.03
2018-08-23T01:15:16.080Z,21.91
2018-08-23T01:16:16.069Z,21.92
2018-08-23T01:17:16.065Z,21.88
2018-08-23T01:18:16.048Z,21.90
2018-08-23T01:19:16.042Z,21.92
2018-08-23T01:20:16.047Z,21.84
2018-08-23T01:21:16.015Z,21.90
2018-08-23T01:22:16.008Z,21.96
2018-08-23T01:23:15.992Z,21.91
2018-08-23T01:24:15.999Z,21.91
2018-08-23T01:25:15.985Z,21.90
2018-08-23T01:26:15.961Z,21.91
2018-08-23T01:27:15.950Z,21.83
2018-08-23T01:28:15.941Z,21.82
2018-08-23T01:29:15.928Z,21.86
2018-08-23T01:30:15.931Z,21.79
2018-08-23T01:31:15.908Z,21.75
2018-08-23T01:32:15.898Z,21.77
2018-08-23T01:33:15.883Z,21.75
2018-08-23T01:34:15.875Z,21.80
2018-08-23T01:35:15.879Z,21.69
2018-08-23T01:36:15.865Z,21.75
2018-08-23T01:37:15.844Z,21.71
2018-08-23T01:38:15.833Z,21.61
2018-08-23T01:39:15.817Z,21.59
2018-08-23T01:40:15.808Z,21.56
2018-08-23T01:41:15.812Z,21.61
2018-08-23T01:42:15.786Z,21.56
2018-08-23T01:43:15.796Z,21.61
2018-08-23T01:44:15.764Z,21.49
2018-08-23T01:45:15.753Z,21.47
2018-08-23T01:46:15.771Z,21.56
2018-08-23T01:47:15.733Z,21.46
2018-08-23T01:48:15.723Z,21.50
2018-08-23T01:49:15.712Z,21.50
2018-08-23T01:50:15.699Z,21.47
2018-08-23T01:51:15.688Z,21.49
2018-08-23T01:52:15.694Z,21.47
2018-08-23T01:53:15.668Z,21.47
2018-08-23T01:54:15.656Z,21.44
2018-08-23T01:55:15.648Z,21.43
2018-08-23T01:56:15.635Z,21.31
2018-08-23T01:57:15.642Z,21.38
2018-08-23T01:58:15.613Z,21.34
2018-08-23T01:59:15.603Z,21.24
2018-08-23T02:00:15.593Z,21.22
2018-08-23T02:01:15.583Z,21.13
2018-08-23T02:02:15.587Z,21.06
2018-08-23T02:03:15.557Z,20.99
2018-08-23T02:04:15.568Z,21.01
2018-08-23T02:05:15.537Z,21.01
2018-08-23T02:06:15.525Z,21.04
2018-08-23T02:07:15.523Z,20.99
2018-08-23T02:08:15.506Z,21.03
2018-08-23T02:09:15.527Z,21.07
2018-08-23T02:10:15.485Z,21.04
2018-08-23T02:11:15.470Z,21.04
2018-08-23T02:12:15.459Z,20.97
2018-08-23T02:13:15.455Z,21.07
2018-08-23T02:14:15.439Z,21.06
2018-08-23T02:15:15.445Z,21.03
2018-08-23T02:16:15.416Z,20.95
2018-08-23T02:17:15.408Z,20.92
2018-08-23T02:18:15.420Z,20.91
2018-08-23T02:19:15.383Z,20.85
2018-08-23T02:20:15.380Z,20.84
2018-08-23T02:21:15.364Z,20.85
2018-08-23T02:22:15.354Z,20.84
2018-08-23T02:23:15.339Z,20.76
2018-08-23T02:24:15.343Z,20.76
2018-08-23T02:25:15.325Z,20.76
2018-08-23T02:26:15.324Z,20.82
2018-08-23T02:27:15.296Z,20.72
2018-08-23T02:28:15.286Z,20.74
2018-08-23T02:29:15.289Z,20.70
2018-08-23T02:30:15.266Z,20.72
2018-08-23T02:31:15.254Z,20.76
2018-08-23T02:32:15.242Z,20.73
2018-08-23T02:33:15.237Z,20.77
2018-08-23T02:34:15.240Z,20.76
2018-08-23T02:35:15.223Z,20.72
2018-08-23T02:36:15.201Z,20.67
2018-08-23T02:37:15.187Z,20.58
2018-08-23T02:38:15.217Z,20.67
2018-08-23T02:39:15.179Z,20.66
2018-08-23T02:40:15.177Z,20.67
2018-08-23T02:41:15.145Z,20.69
2018-08-23T02:42:15.130Z,20.54
2018-08-23T02:43:15.119Z,20.64
2018-08-23T02:44:15.109Z,20.55
2018-08-23T02:45:15.097Z,20.54
2018-08-23T02:46:15.104Z,20.50
2018-08-23T02:47:15.076Z,20.52
2018-08-23T02:48:15.080Z,20.47
2018-08-23T02:49:15.058Z,20.41
2018-08-23T02:50:15.064Z,20.50
2018-08-23T02:51:15.029Z,20.51
2018-08-23T02:52:15.017Z,20.39
2018-08-23T02:53:15.008Z,20.43
2018-08-23T02:54:14.999Z,20.43
2018-08-23T02:55:14.985Z,20.50
2018-08-23T02:56:14.989Z,20.48
2018-08-23T02:57:14.964Z,20.50
2018-08-23T02:58:14.951Z,20.43
2018-08-23T02:59:14.946Z,20.43
2018-08-23T03:00:14.930Z,20.51
2018-08-23T03:01:14.933Z,20.42
2018-08-23T03:02:14.909Z,20.48
2018-08-23T03:03:14.898Z,20.52
2018-08-23T03:04:14.887Z,20.43
2018-08-23T03:05:14.874Z,20.47
2018-08-23T03:06:14.884Z,20.41
2018-08-23T03:07:14.851Z,20.42
2018-08-23T03:08:14.840Z,20.41
2018-08-23T03:09:14.832Z,20.43
2018-08-23T03:10:14.817Z,20.47
2018-08-23T03:11:14.809Z,20.28
2018-08-23T03:12:14.809Z,20.26
2018-08-23T03:13:14.786Z,20.29
2018-08-23T03:14:14.885Z,20.35
2018-08-23T03:15:14.762Z,20.33
2018-08-23T03:16:14.750Z,20.28
2018-08-23T03:17:14.756Z,20.29
2018-08-23T03:18:14.732Z,20.21
2018-08-23T03:19:14.731Z,20.24
2018-08-23T03:20:14.710Z,20.23
2018-08-23T03:21:14.697Z,20.21
2018-08-23T03:22:14.683Z,20.16
2018-08-23T03:23:14.685Z,20.16
2018-08-23T03:24:14.661Z,20.20
2018-08-23T03:25:14.650Z,20.08
2018-08-23T03:26:14.641Z,20.21
2018-08-23T03:27:14.631Z,20.05
2018-08-23T03:28:14.633Z,20.13
2018-08-23T03:29:14.608Z,20.05
2018-08-23T03:30:14.597Z,20.08
2018-08-23T03:31:14.585Z,20.03
2018-08-23T03:32:14.573Z,20.02
2018-08-23T03:33:14.584Z,20.10
2018-08-23T03:34:14.555Z,20.05
2018-08-23T03:35:14.540Z,20.01
2018-08-23T03:36:14.533Z,20.03
2018-08-23T03:37:14.520Z,20.03
2018-08-23T03:38:14.513Z,20.08
2018-08-23T03:39:14.519Z,20.02
2018-08-23T03:40:14.487Z,20.03
2018-08-23T03:41:14.474Z,20.06
2018-08-23T03:42:14.466Z,20.10
2018-08-23T03:43:14.454Z,20.08
2018-08-23T03:44:14.443Z,20.02
2018-08-23T03:45:14.444Z,20.03
2018-08-23T03:46:14.417Z,20.02
2018-08-23T03:47:14.407Z,20.02
2018-08-23T03:48:14.398Z,19.92
2018-08-23T03:49:14.389Z,19.92
2018-08-23T03:50:14.376Z,19.91
2018-08-23T03:51:14.377Z,19.84
2018-08-23T03:52:14.349Z,19.83
2018-08-23T03:53:14.341Z,19.81
2018-08-23T03:54:14.330Z,19.81
2018-08-23T03:55:14.316Z,19.80
2018-08-23T03:56:14.322Z,19.83
2018-08-23T03:57:14.293Z,19.81
2018-08-23T03:58:14.284Z,19.77
2018-08-23T03:59:14.270Z,19.74
2018-08-23T04:00:14.261Z,19.71
2018-08-23T04:01:14.293Z,19.65
2018-08-23T04:02:14.239Z,19.68
2018-08-23T04:03:14.228Z,19.66
2018-08-23T04:04:14.216Z,19.62
2018-08-23T04:05:14.207Z,19.61
2018-08-23T04:06:14.190Z,19.55
2018-08-23T04:07:14.197Z,19.63
2018-08-23T04:08:14.170Z,19.61
2018-08-23T04:09:14.158Z,19.50
2018-08-23T04:10:14.146Z,19.47
2018-08-23T04:11:14.134Z,19.61
2018-08-23T04:12:14.139Z,19.43
2018-08-23T04:13:14.115Z,19.41
2018-08-23T04:14:14.100Z,19.46
2018-08-23T04:15:14.107Z,19.46
2018-08-23T04:16:14.080Z,19.44
2018-08-23T04:17:14.088Z,19.46
2018-08-23T04:18:14.055Z,19.46
2018-08-23T04:19:14.043Z,19.41
2018-08-23T04:20:14.033Z,19.32
2018-08-23T04:21:14.019Z,19.40
2018-08-23T04:22:14.010Z,19.26
2018-08-23T04:23:14.015Z,19.14
2018-08-23T04:24:13.987Z,18.98
2018-08-23T04:25:13.975Z,18.92
2018-08-23T04:26:13.966Z,18.92
2018-08-23T04:27:13.952Z,18.92
2018-08-23T04:28:13.958Z,18.95
2018-08-23T04:29:13.931Z,18.94
2018-08-23T04:30:13.964Z,18.95
2018-08-23T04:31:13.914Z,18.90
2018-08-23T04:32:13.904Z,18.88
2018-08-23T04:33:13.900Z,18.95
2018-08-23T04:34:13.875Z,18.98
2018-08-23T04:35:13.866Z,19.02
2018-08-23T04:36:13.853Z,19.02
2018-08-23T04:37:13.964Z,19.08
2018-08-23T04:38:13.845Z,19.14
2018-08-23T04:39:13.817Z,19.13
2018-08-23T04:40:13.806Z,19.21
2018-08-23T04:41:13.812Z,19.14
2018-08-23T04:42:13.784Z,19.21
2018-08-23T04:43:13.824Z,19.16
2018-08-23T04:44:13.759Z,19.16
2018-08-23T04:45:13.749Z,19.21
2018-08-23T04:46:13.781Z,19.18
2018-08-23T04:47:13.773Z,19.26
2018-08-23T04:48:13.739Z,19.28
2018-08-23T04:49:13.707Z,19.29
2018-08-23T04:50:13.705Z,19.33
2018-08-23T04:51:13.681Z,19.31
2018-08-23T04:52:13.683Z,19.26
2018-08-23T04:53:13.673Z,19.28
2018-08-23T04:54:13.658Z,19.26
2018-08-23T04:55:13.637Z,19.26
2018-08-23T04:56:13.629Z,19.31
2018-08-23T04:57:13.666Z,19.26
2018-08-23T04:58:13.602Z,19.21
2018-08-23T04:59:13.615Z,19.28
2018-08-23T05:00:13.580Z,19.23
2018-08-23T05:01:13.584Z,19.08
2018-08-23T05:02:13.558Z,19.16
2018-08-23T05:03:13.556Z,19.10
2018-08-23T05:04:13.539Z,19.10
2018-08-23T05:05:13.539Z,19.08
2018-08-23T05:06:13.649Z,19.11
2018-08-23T05:07:13.505Z,19.08
2018-08-23T05:08:13.495Z,19.13
2018-08-23T05:09:13.479Z,19.13
2018-08-23T05:10:13.484Z,19.13
2018-08-23T05:11:13.471Z,19.13
2018-08-23T05:12:13.463Z,19.07
2018-08-23T05:13:13.437Z,19.16
2018-08-23T05:14:13.425Z,19.11
2018-08-23T05:15:13.418Z,19.11
2018-08-23T05:16:13.421Z,19.10
2018-08-23T05:17:13.391Z,19.13
2018-08-23T05:18:13.381Z,19.10
2018-08-23T05:19:13.367Z,19.06
2018-08-23T05:20:13.359Z,19.10
2018-08-23T05:21:13.360Z,19.07
2018-08-23T05:22:13.335Z,19.21
2018-08-23T05:23:13.336Z,19.10
2018-08-23T05:24:13.313Z,19.22
2018-08-23T05:25:13.301Z,19.22
2018-08-23T05:26:13.315Z,19.31
2018-08-23T05:27:13.279Z,19.26
2018-08-23T05:28:13.266Z,19.37
2018-08-23T05:29:13.253Z,19.55
2018-08-23T05:30:13.246Z,19.50
2018-08-23T05:31:13.232Z,19.68
2018-08-23T05:32:13.239Z,19.77
2018-08-23T05:33:13.211Z,19.87
2018-08-23T05:34:13.198Z,20.05
2018-08-23T05:35:13.189Z,20.14
2018-08-23T05:36:13.174Z,20.06
2018-08-23T05:37:13.177Z,20.16
2018-08-23T05:38:13.169Z,20.21
2018-08-23T05:39:13.158Z,20.16
2018-08-23T05:40:13.131Z,20.14
2018-08-23T05:41:13.120Z,20.10
2018-08-23T05:42:13.129Z,20.05
2018-08-23T05:43:13.100Z,20.05
2018-08-23T05:44:13.090Z,19.95
2018-08-23T05:45:13.076Z,19.92
2018-08-23T05:46:13.066Z,19.88
2018-08-23T05:47:13.058Z,19.88
2018-08-23T05:48:13.065Z,20.17
2018-08-23T05:49:13.033Z,20.06
2018-08-23T05:50:13.024Z,19.98
2018-08-23T05:51:13.011Z,19.92
2018-08-23T05:52:13.002Z,19.66
2018-08-23T05:53:12.990Z,19.39
2018-08-23T05:54:12.994Z,19.16
2018-08-23T05:55:12.971Z,18.99
2018-08-23T05:56:13.003Z,18.94
2018-08-23T05:57:12.949Z,18.92
2018-08-23T05:58:12.938Z,18.91
2018-08-23T05:59:12.927Z,18.82
2018-08-23T06:00:12.913Z,18.82
2018-08-23T06:01:12.904Z,18.88
2018-08-23T06:02:12.911Z,18.85
2018-08-23T06:03:12.884Z,18.94
2018-08-23T06:04:12.870Z,18.92
2018-08-23T06:05:12.859Z,18.91
2018-08-23T06:06:12.849Z,18.94
2018-08-23T06:07:12.842Z,19.02
2018-08-23T06:08:12.894Z,19.00
2018-08-23T06:09:12.818Z,19.08
2018-08-23T06:10:12.805Z,19.18
2018-08-23T06:11:12.797Z,19.16
2018-08-23T06:12:12.785Z,19.19
2018-08-23T06:13:12.775Z,19.25
2018-08-23T06:14:12.859Z,19.16
2018-08-23T06:15:12.750Z,19.25
2018-08-23T06:16:12.742Z,19.14
2018-08-23T06:17:12.728Z,19.02
2018-08-23T06:18:12.720Z,19.00
2018-08-23T06:19:12.706Z,19.00
2018-08-23T06:20:12.716Z,19.13
2018-08-23T06:21:12.687Z,19.16
2018-08-23T06:22:12.676Z,19.06
2018-08-23T06:23:12.663Z,18.99
2018-08-23T06:24:12.657Z,19.08
2018-08-23T06:25:12.658Z,19.04
2018-08-23T06:26:12.630Z,18.99
2018-08-23T06:27:12.631Z,18.95
2018-08-23T06:28:12.610Z,18.95
2018-08-23T06:29:12.613Z,18.98
2018-08-23T06:30:12.590Z,19.11
2018-08-23T06:31:12.576Z,19.21
2018-08-23T06:32:12.564Z,19.37
2018-08-23T06:33:12.803Z,19.46
2018-08-23T06:34:12.567Z,19.65
2018-08-23T06:35:12.532Z,19.62
2018-08-23T06:36:12.521Z,19.71
2018-08-23T06:37:12.533Z,19.66
2018-08-23T06:38:12.498Z,19.56
2018-08-23T06:39:12.490Z,19.47
2018-08-23T06:40:12.479Z,19.31
2018-08-23T06:41:12.469Z,19.28
2018-08-23T06:42:12.459Z,19.31
2018-08-23T06:43:12.460Z,19.23
2018-08-23T06:44:12.437Z,19.14
2018-08-23T06:45:12.443Z,19.19
2018-08-23T06:46:12.474Z,19.26
2018-08-23T06:47:12.402Z,19.48
2018-08-23T06:48:12.406Z,19.73
2018-08-23T06:49:12.409Z,19.95
2018-08-23T06:50:12.381Z,20.17
2018-08-23T06:51:12.444Z,20.28
2018-08-23T06:52:12.385Z,20.47
2018-08-23T06:53:12.337Z,20.58
2018-08-23T06:54:12.325Z,20.58
2018-08-23T06:55:12.315Z,20.58
2018-08-23T06:56:12.304Z,20.59
2018-08-23T06:57:12.310Z,20.66
2018-08-23T06:58:12.283Z,20.58
2018-08-23T06:59:12.270Z,20.59
2018-08-23T07:00:12.259Z,20.48
2018-08-23T07:01:12.246Z,20.51
2018-08-23T07:02:12.235Z,20.21
2018-08-23T07:03:12.267Z,20.17
2018-08-23T07:04:12.213Z,20.06
2018-08-23T07:05:12.206Z,20.10
2018-08-23T07:06:12.193Z,20.13
2018-08-23T07:07:12.198Z,20.05
2018-08-23T07:08:12.171Z,20.01
2018-08-23T07:09:12.172Z,20.05
2018-08-23T07:10:12.147Z,20.13
2018-08-23T07:11:12.138Z,20.14
2018-08-23T07:12:12.128Z,20.28
2018-08-23T07:13:12.117Z,20.48
2018-08-23T07:14:12.120Z,20.58
2018-08-23T07:15:12.092Z,20.59
2018-08-23T07:16:12.084Z,20.61
2018-08-23T07:17:12.117Z,20.77
2018-08-23T07:18:12.061Z,20.72
2018-08-23T07:19:12.071Z,20.80
2018-08-23T07:20:12.036Z,20.85
2018-08-23T07:21:12.024Z,20.88
2018-08-23T07:22:12.018Z,20.79
2018-08-23T07:23:12.007Z,20.73
2018-08-23T07:24:12.029Z,20.73
2018-08-23T07:25:12.007Z,20.76
2018-08-23T07:26:12.011Z,20.87
2018-08-23T07:27:11.963Z,20.89
2018-08-23T07:28:11.956Z,20.92
2018-08-23T07:29:11.940Z,20.98
2018-08-23T07:30:11.974Z,21.07
2018-08-23T07:31:11.920Z,21.09
2018-08-23T07:32:11.909Z,21.10
2018-08-23T07:33:11.926Z,21.27
2018-08-23T07:34:11.890Z,21.28
2018-08-23T07:35:11.891Z,21.31
2018-08-23T07:36:11.869Z,21.35
2018-08-23T07:37:11.856Z,21.28
2018-08-23T07:38:11.847Z,21.24
2018-08-23T07:39:11.879Z,21.22
2018-08-23T07:40:11.842Z,21.27
2018-08-23T07:41:11.816Z,21.34
2018-08-23T07:42:11.822Z,21.31
2018-08-23T07:43:11.931Z,21.37
2018-08-23T07:44:11.784Z,21.31
2018-08-23T07:45:11.773Z,21.32
2018-08-23T07:46:11.763Z,21.34
2018-08-23T07:47:11.753Z,21.35
2018-08-23T07:48:11.759Z,21.38
2018-08-23T07:49:11.729Z,21.31
2018-08-23T07:50:11.717Z,21.35
2018-08-23T07:51:11.709Z,21.46
2018-08-23T07:52:11.712Z,21.46
2018-08-23T07:53:11.711Z,21.56
2018-08-23T07:54:11.677Z,21.65
2018-08-23T07:55:11.665Z,21.68
2018-08-23T07:56:11.653Z,21.52
2018-08-23T07:57:11.658Z,21.43
2018-08-23T07:58:11.629Z,21.35
2018-08-23T07:59:11.617Z,21.37
2018-08-23T08:00:11.608Z,21.42
2018-08-23T08:01:11.595Z,21.46
2018-08-23T08:02:11.585Z,21.46
2018-08-23T08:03:11.592Z,21.53
2018-08-23T08:04:11.563Z,21.68
2018-08-23T08:05:11.550Z,21.71
2018-08-23T08:06:11.541Z,21.68
2018-08-23T08:07:11.533Z,21.79
2018-08-23T08:08:11.533Z,21.88
2018-08-23T08:09:11.507Z,21.90
2018-08-23T08:10:11.493Z,21.96
2018-08-23T08:11:11.487Z,22.10
2018-08-23T08:12:11.512Z,22.15
2018-08-23T08:13:11.474Z,22.27
2018-08-23T08:14:11.449Z,22.18
2018-08-23T08:15:11.602Z,22.25
2018-08-23T08:16:11.426Z,22.30
2018-08-23T08:17:11.423Z,22.28
2018-08-23T08:18:11.420Z,22.31
2018-08-23T08:19:11.394Z,22.24
2018-08-23T08:20:11.383Z,22.24
2018-08-23T08:21:11.369Z,22.36
2018-08-23T08:22:11.361Z,22.49
2018-08-23T08:23:11.387Z,22.47
2018-08-23T08:24:11.336Z,22.60
2018-08-23T08:25:11.325Z,22.57
2018-08-23T08:26:11.315Z,22.61
2018-08-23T08:27:11.357Z,22.65
2018-08-23T08:28:11.293Z,22.58
2018-08-23T08:29:11.321Z,22.70
2018-08-23T08:30:11.270Z,22.58
2018-08-23T08:31:11.259Z,22.68
2018-08-23T08:32:11.250Z,22.73
2018-08-23T08:33:11.350Z,22.61
2018-08-23T08:34:11.227Z,22.73
2018-08-23T08:35:11.240Z,22.76
2018-08-23T08:36:11.206Z,22.75
2018-08-23T08:37:11.193Z,22.92
2018-08-23T08:38:11.185Z,22.95
2018-08-23T08:39:11.172Z,23.04
2018-08-23T08:40:11.159Z,23.05
2018-08-23T08:41:11.165Z,23.02
2018-08-23T08:42:11.138Z,23.07
2018-08-23T08:43:11.128Z,23.10
2018-08-23T08:44:11.116Z,23.15
2018-08-23T08:45:11.122Z,23.27
2018-08-23T08:46:11.099Z,23.31
2018-08-23T08:47:11.101Z,23.33
2018-08-23T08:48:11.077Z,23.50
2018-08-23T08:49:11.065Z,23.63
2018-08-23T08:50:11.053Z,23.72
2018-08-23T08:51:11.043Z,23.76
2018-08-23T08:52:11.050Z,23.98
2018-08-23T08:53:11.022Z,24.02
2018-08-23T08:54:11.009Z,23.98
2018-08-23T08:55:10.999Z,24.16
2018-08-23T08:56:10.988Z,24.08
2018-08-23T08:57:11.100Z,24.31
2018-08-23T08:58:10.981Z,24.35
2018-08-23T08:59:10.958Z,24.58
2018-08-23T09:00:10.948Z,24.73
2018-08-23T09:01:10.937Z,24.90
2018-08-23T09:02:10.927Z,24.95
2018-08-23T09:03:10.999Z,25.00
2018-08-23T09:04:10.904Z,25.28
2018-08-23T09:05:10.894Z,25.42
2018-08-23T09:06:10.882Z,25.61
2018-08-23T09:07:10.877Z,25.79
2018-08-23T09:08:10.863Z,25.87
2018-08-23T09:09:10.873Z,26.07
2018-08-23T09:10:10.842Z,26.06
2018-08-23T09:11:10.829Z,25.95
2018-08-23T09:12:10.818Z,25.85
2018-08-23T09:13:10.809Z,25.75
2018-08-23T09:14:10.798Z,25.79
2018-08-23T09:15:10.804Z,25.91
2018-08-23T09:16:10.776Z,26.07
2018-08-23T09:17:10.781Z,26.23
2018-08-23T09:18:10.755Z,26.33
2018-08-23T09:19:10.750Z,26.23
2018-08-23T09:20:10.752Z,26.18
2018-08-23T09:21:10.725Z,26.18
2018-08-23T09:22:10.715Z,25.99
2018-08-23T09:23:10.702Z,26.06
2018-08-23T09:24:10.695Z,25.99
2018-08-23T09:25:10.745Z,25.99
2018-08-23T09:26:10.671Z,26.01
2018-08-23T09:27:10.691Z,26.09
2018-08-23T09:28:10.650Z,26.01
2018-08-23T09:29:10.642Z,26.02
2018-08-23T09:30:10.639Z,25.95
2018-08-23T09:31:10.633Z,25.97
2018-08-23T09:32:10.667Z,26.18
2018-08-23T09:33:10.626Z,26.37
2018-08-23T09:34:10.587Z,26.57
2018-08-23T09:35:10.681Z,26.55
2018-08-23T09:36:10.569Z,26.72
2018-08-23T09:37:10.558Z,26.80
2018-08-23T09:38:10.543Z,26.72
2018-08-23T09:39:10.550Z,26.75
2018-08-23T09:40:10.525Z,26.57
2018-08-23T09:41:10.515Z,26.58
2018-08-23T09:42:10.504Z,26.63
2018-08-23T09:43:10.500Z,26.44
2018-08-23T09:44:10.522Z,26.48
2018-08-23T09:45:10.472Z,26.52
2018-08-23T09:46:10.464Z,26.63
2018-08-23T09:47:10.452Z,26.75
2018-08-23T09:48:10.441Z,26.70
2018-08-23T09:49:10.430Z,26.82
2018-08-23T09:50:10.513Z,26.91
2018-08-23T09:51:10.540Z,26.89
2018-08-23T09:52:10.403Z,26.97
2018-08-23T09:53:10.391Z,26.91
2018-08-23T09:54:10.378Z,26.91
2018-08-23T09:55:10.371Z,26.92
2018-08-23T09:56:10.370Z,26.99
2018-08-23T09:57:10.343Z,26.97
2018-08-23T09:58:10.348Z,26.89
2018-08-23T09:59:10.325Z,27.04
2018-08-23T10:00:10.316Z,27.07
2018-08-23T10:01:10.309Z,27.09
2018-08-23T10:02:10.305Z,27.10
2018-08-23T10:03:10.284Z,27.28
2018-08-23T10:04:10.279Z,27.31
2018-08-23T10:05:10.260Z,27.44
2018-08-23T10:06:10.256Z,27.39
2018-08-23T10:07:10.256Z,27.27
2018-08-23T10:08:10.231Z,27.27
2018-08-23T10:09:10.219Z,27.29
2018-08-23T10:10:10.213Z,27.13
2018-08-23T10:11:10.200Z,27.21
2018-08-23T10:12:10.207Z,27.21
2018-08-23T10:13:10.192Z,27.24
2018-08-23T10:14:10.166Z,27.22
2018-08-23T10:15:10.162Z,27.32
2018-08-23T10:16:10.148Z,27.59
2018-08-23T10:17:10.136Z,27.74
2018-08-23T10:18:10.150Z,27.92
2018-08-23T10:19:10.116Z,27.82
2018-08-23T10:20:10.109Z,27.70
2018-08-23T10:21:10.093Z,27.50
2018-08-23T10:22:10.084Z,27.31
2018-08-23T10:23:10.072Z,27.12
2018-08-23T10:24:10.076Z,26.94
2018-08-23T10:25:10.051Z,26.76
2018-08-23T10:26:10.042Z,26.69
2018-08-23T10:27:10.032Z,26.76
2018-08-23T10:28:10.022Z,26.92
2018-08-23T10:29:10.024Z,27.13
2018-08-23T10:30:10.000Z,27.34
2018-08-23T10:31:09.988Z,27.63
2018-08-23T10:32:10.050Z,27.87
2018-08-23T10:33:09.970Z,27.99
2018-08-23T10:34:09.973Z,28.02
2018-08-23T10:35:09.948Z,27.88
2018-08-23T10:36:09.941Z,27.75
2018-08-23T10:37:09.926Z,27.74
2018-08-23T10:38:09.979Z,27.75
2018-08-23T10:39:09.921Z,27.74
2018-08-23T10:40:09.897Z,27.82
2018-08-23T10:41:09.899Z,27.85
2018-08-23T10:42:09.875Z,28.09
2018-08-23T10:43:09.868Z,28.27
2018-08-23T10:44:09.925Z,28.22
2018-08-23T10:45:09.861Z,28.36
2018-08-23T10:46:09.836Z,28.48
2018-08-23T10:47:09.823Z,28.56
2018-08-23T10:48:09.815Z,28.71
2018-08-23T10:49:09.804Z,28.74
2018-08-23T10:50:09.840Z,28.90
2018-08-23T10:51:09.865Z,29.04
2018-08-23T10:52:09.770Z,29.05
2018-08-23T10:53:09.765Z,29.18
2018-08-23T10:54:09.768Z,29.21
2018-08-23T10:55:09.742Z,29.14
2018-08-23T10:56:09.746Z,29.09
2018-08-23T10:57:09.722Z,29.05
2018-08-23T10:58:09.710Z,29.06
2018-08-23T10:59:09.799Z,28.93
2018-08-23T11:00:09.689Z,28.73
2018-08-23T11:01:09.697Z,28.76
2018-08-23T11:02:09.669Z,28.77
2018-08-23T11:03:09.672Z,28.80
2018-08-23T11:04:09.648Z,28.98
2018-08-23T11:05:09.641Z,29.04
2018-08-23T11:06:09.646Z,29.16
2018-08-23T11:07:09.619Z,29.12
2018-08-23T11:08:09.611Z,29.08
2018-08-23T11:09:09.599Z,29.08
2018-08-23T11:10:09.589Z,29.02
2018-08-23T11:11:09.598Z,29.09
2018-08-23T11:12:09.568Z,28.83
2018-08-23T11:13:09.572Z,28.86
2018-08-23T11:14:09.548Z,28.71
2018-08-23T11:15:09.537Z,28.92
2018-08-23T11:16:09.554Z,29.11
2018-08-23T11:17:09.599Z,29.34
2018-08-23T11:18:09.509Z,29.57
2018-08-23T11:19:09.497Z,29.74
2018-08-23T11:20:09.488Z,29.98
2018-08-23T11:21:09.477Z,29.95
2018-08-23T11:22:09.496Z,30.05
2018-08-23T11:23:09.479Z,30.07
2018-08-23T11:24:09.450Z,30.05
2018-08-23T11:25:09.448Z,30.13
2018-08-23T11:26:09.430Z,30.32
2018-08-23T11:27:09.416Z,30.47
2018-08-23T11:28:09.446Z,30.46
2018-08-23T11:29:09.402Z,30.23
2018-08-23T11:30:09.392Z,29.85
2018-08-23T11:31:09.379Z,29.68
2018-08-23T11:32:09.368Z,29.52
2018-08-23T11:33:09.360Z,29.46
2018-08-23T11:34:09.369Z,29.63
2018-08-23T11:35:09.362Z,29.74
2018-08-23T11:36:09.328Z,29.98
2018-08-23T11:37:09.320Z,29.98
2018-08-23T11:38:09.307Z,30.17
2018-08-23T11:39:09.295Z,30.27
2018-08-23T11:40:09.304Z,30.39
2018-08-23T11:41:09.276Z,30.38
2018-08-23T11:42:09.269Z,30.46
2018-08-23T11:43:09.258Z,30.45
2018-08-23T11:44:09.261Z,30.42
2018-08-23T11:45:09.236Z,30.29
2018-08-23T11:46:09.226Z,30.16
2018-08-23T11:47:09.215Z,30.11
2018-08-23T11:48:09.211Z,30.16
2018-08-23T11:49:09.211Z,30.24
2018-08-23T11:50:09.203Z,30.24
2018-08-23T11:51:09.178Z,30.37
2018-08-23T11:52:09.166Z,30.27
2018-08-23T11:53:09.260Z,30.37
2018-08-23T11:54:09.149Z,30.43
2018-08-23T11:55:09.154Z,30.58
2018-08-23T11:56:09.123Z,30.73
2018-08-23T11:57:09.113Z,30.53
2018-08-23T11:58:09.201Z,30.43
2018-08-23T11:59:09.160Z,30.23
2018-08-23T12:00:09.104Z,30.23
2018-08-23T12:01:09.076Z,30.31
2018-08-23T12:02:09.078Z,30.53
2018-08-23T12:03:09.061Z,30.69
2018-08-23T12:04:09.044Z,30.73
2018-08-23T12:05:09.053Z,30.70
2018-08-23T12:06:09.022Z,30.69
2018-08-23T12:07:09.012Z,30.73
2018-08-23T12:08:09.002Z,30.73
2018-08-23T12:09:08.994Z,30.65
2018-08-23T12:10:08.984Z,30.45
2018-08-23T12:11:08.989Z,30.32
2018-08-23T12:12:08.983Z,30.22
2018-08-23T12:13:08.968Z,29.97
2018-08-23T12:14:08.941Z,30.00
2018-08-23T12:15:08.931Z,30.01
2018-08-23T12:16:08.923Z,30.11
2018-08-23T12:17:08.926Z,30.16
2018-08-23T12:18:08.900Z,30.22
2018-08-23T12:19:08.908Z,30.29
2018-08-23T12:20:08.880Z,30.38
2018-08-23T12:21:08.886Z,30.47
2018-08-23T12:22:08.876Z,30.62
2018-08-23T12:23:08.854Z,30.80
2018-08-23T12:24:08.847Z,30.92
2018-08-23T12:25:08.830Z,31.06
2018-08-23T12:26:08.823Z,31.07
2018-08-23T12:27:08.822Z,31.14
2018-08-23T12:28:08.816Z,31.20
2018-08-23T12:29:08.806Z,31.20
2018-08-23T12:30:08.788Z,31.20
2018-08-23T12:31:08.772Z,31.16
2018-08-23T12:32:08.759Z,30.97
2018-08-23T12:33:08.751Z,30.89
2018-08-23T12:34:08.753Z,30.75
2018-08-23T12:35:08.728Z,30.58
2018-08-23T12:36:08.733Z,30.45
2018-08-23T12:37:08.709Z,30.55
2018-08-23T12:38:08.712Z,30.53
2018-08-23T12:39:08.748Z,30.64
2018-08-23T12:40:08.731Z,30.62
2018-08-23T12:41:08.667Z,30.72
2018-08-23T12:42:08.658Z,30.80
2018-08-23T12:43:08.649Z,30.91
2018-08-23T12:44:08.644Z,31.04
2018-08-23T12:45:08.644Z,31.02
2018-08-23T12:46:08.617Z,30.88
2018-08-23T12:47:08.606Z,30.69
2018-08-23T12:48:08.598Z,30.58
2018-08-23T12:49:08.602Z,30.47
2018-08-23T12:50:08.576Z,30.49
2018-08-23T12:51:08.568Z,30.62
2018-08-23T12:52:08.560Z,30.58